sensor_id;sensor_type;location;lat;lon;timestamp;P1;durP1;ratioP1;P2;durP2;ratioP2
48805;SDS011;34625;47.176;27.548;2022-08-23T00:01:51;9.40;;;4.55;;
48805;SDS011;34625;47.176;27.548;2022-08-23T00:04:21;9.80;;;3.28;;
48805;SDS011;34625;47.176;27.548;2022-08-23T00:06:51;6.47;;;3.17;;
48805;SDS011;34625;47.176;27.548;2022-08-23T00:09:20;5.97;;;3.22;;
48805;SDS011;34625;47.176;27.548;2022-08-23T00:11:49;8.68;;;3.50;;
48805;SDS011;34625;47.176;27.548;2022-08-23T00:14:22;13.25;;;3.60;;
48805;SDS011;34625;47.176;27.548;2022-08-23T00:16:52;10.05;;;4.05;;
48805;SDS011;34625;47.176;27.548;2022-08-23T00:19:19;8.98;;;3.72;;
48805;SDS011;34625;47.176;27.548;2022-08-23T00:21:47;6.25;;;3.45;;
48805;SDS011;34625;47.176;27.548;2022-08-23T00:24:15;10.27;;;3.17;;
48805;SDS011;34625;47.176;27.548;2022-08-23T00:29:26;7.05;;;3.72;;
48805;SDS011;34625;47.176;27.548;2022-08-23T00:31:57;4.82;;;3.30;;
48805;SDS011;34625;47.176;27.548;2022-08-23T00:34:24;9.15;;;3.47;;
48805;SDS011;34625;47.176;27.548;2022-08-23T00:36:51;5.68;;;3.60;;
48805;SDS011;34625;47.176;27.548;2022-08-23T00:39:17;7.35;;;3.35;;
48805;SDS011;34625;47.176;27.548;2022-08-23T00:41:45;6.28;;;3.30;;
48805;SDS011;34625;47.176;27.548;2022-08-23T00:44:14;12.65;;;3.55;;
48805;SDS011;34625;47.176;27.548;2022-08-23T00:47:13;7.45;;;3.20;;
48805;SDS011;34625;47.176;27.548;2022-08-23T00:52:37;5.88;;;3.47;;
48805;SDS011;34625;47.176;27.548;2022-08-23T00:55:20;7.70;;;3.25;;
48805;SDS011;34625;47.176;27.548;2022-08-23T00:57:46;5.65;;;3.30;;
48805;SDS011;34625;47.176;27.548;2022-08-23T01:00:13;9.18;;;3.70;;
48805;SDS011;34625;47.176;27.548;2022-08-23T01:02:40;7.28;;;3.28;;
48805;SDS011;34625;47.176;27.548;2022-08-23T01:05:07;9.63;;;3.88;;
48805;SDS011;34625;47.176;27.548;2022-08-23T01:10:02;7.80;;;3.50;;
48805;SDS011;34625;47.176;27.548;2022-08-23T01:12:38;7.97;;;2.95;;
48805;SDS011;34625;47.176;27.548;2022-08-23T01:15:32;6.65;;;3.55;;
48805;SDS011;34625;47.176;27.548;2022-08-23T01:18:08;7.18;;;3.13;;
48805;SDS011;34625;47.176;27.548;2022-08-23T01:20:41;9.25;;;3.22;;
48805;SDS011;34625;47.176;27.548;2022-08-23T01:23:34;9.85;;;3.70;;
48805;SDS011;34625;47.176;27.548;2022-08-23T01:26:11;6.10;;;3.40;;
48805;SDS011;34625;47.176;27.548;2022-08-23T01:28:41;4.88;;;3.35;;
48805;SDS011;34625;47.176;27.548;2022-08-23T01:31:09;11.48;;;3.67;;
48805;SDS011;34625;47.176;27.548;2022-08-23T01:33:36;12.25;;;4.05;;
48805;SDS011;34625;47.176;27.548;2022-08-23T01:36:03;5.63;;;3.47;;
48805;SDS011;34625;47.176;27.548;2022-08-23T01:38:33;6.07;;;3.50;;
48805;SDS011;34625;47.176;27.548;2022-08-23T01:40:59;6.90;;;3.70;;
48805;SDS011;34625;47.176;27.548;2022-08-23T01:43:26;7.22;;;3.63;;
48805;SDS011;34625;47.176;27.548;2022-08-23T01:45:53;5.72;;;3.35;;
48805;SDS011;34625;47.176;27.548;2022-08-23T01:48:22;13.05;;;4.10;;
48805;SDS011;34625;47.176;27.548;2022-08-23T01:50:49;9.23;;;3.78;;
48805;SDS011;34625;47.176;27.548;2022-08-23T01:53:15;7.50;;;4.05;;
48805;SDS011;34625;47.176;27.548;2022-08-23T01:55:46;4.25;;;3.38;;
48805;SDS011;34625;47.176;27.548;2022-08-23T01:58:15;7.30;;;3.30;;
48805;SDS011;34625;47.176;27.548;2022-08-23T02:00:41;6.32;;;3.47;;
48805;SDS011;34625;47.176;27.548;2022-08-23T02:03:11;6.65;;;3.70;;
48805;SDS011;34625;47.176;27.548;2022-08-23T02:05:39;7.63;;;3.60;;
48805;SDS011;34625;47.176;27.548;2022-08-23T02:08:05;6.68;;;3.95;;
48805;SDS011;34625;47.176;27.548;2022-08-23T02:10:53;6.05;;;3.60;;
48805;SDS011;34625;47.176;27.548;2022-08-23T02:13:20;8.55;;;3.88;;
48805;SDS011;34625;47.176;27.548;2022-08-23T02:15:46;6.10;;;4.03;;
48805;SDS011;34625;47.176;27.548;2022-08-23T02:18:16;6.40;;;4.03;;
48805;SDS011;34625;47.176;27.548;2022-08-23T02:20:45;6.53;;;3.70;;
48805;SDS011;34625;47.176;27.548;2022-08-23T02:23:14;6.55;;;3.75;;
48805;SDS011;34625;47.176;27.548;2022-08-23T02:25:41;5.68;;;3.65;;
48805;SDS011;34625;47.176;27.548;2022-08-23T02:28:09;6.38;;;3.72;;
48805;SDS011;34625;47.176;27.548;2022-08-23T02:30:36;7.43;;;3.85;;
48805;SDS011;34625;47.176;27.548;2022-08-23T02:33:02;6.25;;;3.97;;
48805;SDS011;34625;47.176;27.548;2022-08-23T02:35:29;6.95;;;3.40;;
48805;SDS011;34625;47.176;27.548;2022-08-23T02:37:57;9.10;;;4.13;;
48805;SDS011;34625;47.176;27.548;2022-08-23T02:40:28;8.88;;;3.80;;
48805;SDS011;34625;47.176;27.548;2022-08-23T02:42:54;5.93;;;4.35;;
48805;SDS011;34625;47.176;27.548;2022-08-23T02:45:20;7.88;;;4.20;;
48805;SDS011;34625;47.176;27.548;2022-08-23T02:47:47;11.25;;;4.63;;
48805;SDS011;34625;47.176;27.548;2022-08-23T02:50:19;8.13;;;4.03;;
48805;SDS011;34625;47.176;27.548;2022-08-23T02:52:45;9.48;;;4.78;;
48805;SDS011;34625;47.176;27.548;2022-08-23T02:55:12;9.98;;;4.80;;
48805;SDS011;34625;47.176;27.548;2022-08-23T02:57:38;7.57;;;4.72;;
48805;SDS011;34625;47.176;27.548;2022-08-23T03:00:06;6.90;;;4.53;;
48805;SDS011;34625;47.176;27.548;2022-08-23T03:02:35;10.13;;;4.22;;
48805;SDS011;34625;47.176;27.548;2022-08-23T03:05:02;6.25;;;4.70;;
48805;SDS011;34625;47.176;27.548;2022-08-23T03:07:31;14.85;;;4.57;;
48805;SDS011;34625;47.176;27.548;2022-08-23T03:09:57;9.02;;;4.78;;
48805;SDS011;34625;47.176;27.548;2022-08-23T03:12:25;6.43;;;3.92;;
48805;SDS011;34625;47.176;27.548;2022-08-23T03:14:55;10.13;;;5.28;;
48805;SDS011;34625;47.176;27.548;2022-08-23T03:17:21;6.50;;;4.97;;
48805;SDS011;34625;47.176;27.548;2022-08-23T03:19:48;10.13;;;5.32;;
48805;SDS011;34625;47.176;27.548;2022-08-23T03:22:16;9.65;;;4.90;;
48805;SDS011;34625;47.176;27.548;2022-08-23T03:24:43;7.70;;;4.70;;
48805;SDS011;34625;47.176;27.548;2022-08-23T03:27:10;9.40;;;4.78;;
48805;SDS011;34625;47.176;27.548;2022-08-23T03:29:37;6.45;;;4.40;;
48805;SDS011;34625;47.176;27.548;2022-08-23T03:32:04;12.90;;;4.93;;
48805;SDS011;34625;47.176;27.548;2022-08-23T03:34:34;13.68;;;5.57;;
48805;SDS011;34625;47.176;27.548;2022-08-23T03:37:00;7.80;;;4.45;;
48805;SDS011;34625;47.176;27.548;2022-08-23T03:39:27;10.77;;;4.40;;
48805;SDS011;34625;47.176;27.548;2022-08-23T03:41:55;14.13;;;5.45;;
48805;SDS011;34625;47.176;27.548;2022-08-23T03:44:21;7.05;;;5.07;;
48805;SDS011;34625;47.176;27.548;2022-08-23T03:46:48;12.32;;;5.60;;
48805;SDS011;34625;47.176;27.548;2022-08-23T03:49:15;12.23;;;5.75;;
48805;SDS011;34625;47.176;27.548;2022-08-23T03:51:46;9.05;;;4.85;;
48805;SDS011;34625;47.176;27.548;2022-08-23T03:54:12;10.13;;;5.05;;
48805;SDS011;34625;47.176;27.548;2022-08-23T03:56:38;9.20;;;5.10;;
48805;SDS011;34625;47.176;27.548;2022-08-23T03:59:16;11.32;;;4.55;;
48805;SDS011;34625;47.176;27.548;2022-08-23T04:01:42;12.43;;;5.10;;
48805;SDS011;34625;47.176;27.548;2022-08-23T04:04:08;11.13;;;5.00;;
48805;SDS011;34625;47.176;27.548;2022-08-23T04:06:40;9.77;;;5.65;;
48805;SDS011;34625;47.176;27.548;2022-08-23T04:09:10;5.75;;;5.05;;
48805;SDS011;34625;47.176;27.548;2022-08-23T04:11:36;10.15;;;4.90;;
48805;SDS011;34625;47.176;27.548;2022-08-23T04:14:05;10.32;;;5.25;;
48805;SDS011;34625;47.176;27.548;2022-08-23T04:16:31;6.55;;;4.68;;
48805;SDS011;34625;47.176;27.548;2022-08-23T04:19:05;7.68;;;4.78;;
48805;SDS011;34625;47.176;27.548;2022-08-23T04:21:33;9.30;;;4.88;;
48805;SDS011;34625;47.176;27.548;2022-08-23T04:24:02;6.65;;;5.05;;
48805;SDS011;34625;47.176;27.548;2022-08-23T04:26:29;11.38;;;5.88;;
48805;SDS011;34625;47.176;27.548;2022-08-23T04:28:55;11.02;;;5.32;;
48805;SDS011;34625;47.176;27.548;2022-08-23T04:31:22;8.57;;;5.13;;
48805;SDS011;34625;47.176;27.548;2022-08-23T04:33:52;7.40;;;5.80;;
48805;SDS011;34625;47.176;27.548;2022-08-23T04:36:21;7.82;;;4.85;;
48805;SDS011;34625;47.176;27.548;2022-08-23T04:38:47;7.60;;;5.00;;
48805;SDS011;34625;47.176;27.548;2022-08-23T04:41:13;12.50;;;5.25;;
48805;SDS011;34625;47.176;27.548;2022-08-23T04:44:00;5.40;;;3.90;;
48805;SDS011;34625;47.176;27.548;2022-08-23T04:46:27;7.18;;;4.28;;
48805;SDS011;34625;47.176;27.548;2022-08-23T04:48:56;10.45;;;5.00;;
48805;SDS011;34625;47.176;27.548;2022-08-23T04:51:24;10.30;;;5.13;;
48805;SDS011;34625;47.176;27.548;2022-08-23T04:53:50;9.02;;;3.75;;
48805;SDS011;34625;47.176;27.548;2022-08-23T04:56:34;7.30;;;4.68;;
48805;SDS011;34625;47.176;27.548;2022-08-23T04:59:02;9.88;;;4.75;;
48805;SDS011;34625;47.176;27.548;2022-08-23T05:01:29;14.05;;;5.10;;
48805;SDS011;34625;47.176;27.548;2022-08-23T05:03:56;11.40;;;5.45;;
48805;SDS011;34625;47.176;27.548;2022-08-23T05:06:24;13.05;;;4.97;;
48805;SDS011;34625;47.176;27.548;2022-08-23T05:08:51;9.95;;;5.80;;
48805;SDS011;34625;47.176;27.548;2022-08-23T05:11:17;10.32;;;6.18;;
48805;SDS011;34625;47.176;27.548;2022-08-23T05:13:46;16.58;;;7.80;;
48805;SDS011;34625;47.176;27.548;2022-08-23T05:16:13;11.73;;;7.57;;
48805;SDS011;34625;47.176;27.548;2022-08-23T05:18:46;12.35;;;6.85;;
48805;SDS011;34625;47.176;27.548;2022-08-23T05:21:14;9.18;;;6.28;;
48805;SDS011;34625;47.176;27.548;2022-08-23T05:23:42;10.27;;;5.22;;
48805;SDS011;34625;47.176;27.548;2022-08-23T05:26:15;8.40;;;5.05;;
48805;SDS011;34625;47.176;27.548;2022-08-23T05:28:42;7.70;;;4.88;;
48805;SDS011;34625;47.176;27.548;2022-08-23T05:31:14;11.82;;;4.68;;
48805;SDS011;34625;47.176;27.548;2022-08-23T05:33:50;8.07;;;5.07;;
48805;SDS011;34625;47.176;27.548;2022-08-23T05:36:25;4.65;;;4.05;;
48805;SDS011;34625;47.176;27.548;2022-08-23T05:38:51;12.90;;;4.80;;
48805;SDS011;34625;47.176;27.548;2022-08-23T05:41:19;13.43;;;4.55;;
48805;SDS011;34625;47.176;27.548;2022-08-23T05:43:46;7.80;;;4.40;;
48805;SDS011;34625;47.176;27.548;2022-08-23T05:46:14;8.25;;;4.75;;
48805;SDS011;34625;47.176;27.548;2022-08-23T05:48:50;9.88;;;4.45;;
48805;SDS011;34625;47.176;27.548;2022-08-23T05:51:23;7.03;;;4.47;;
48805;SDS011;34625;47.176;27.548;2022-08-23T05:53:55;12.13;;;3.97;;
48805;SDS011;34625;47.176;27.548;2022-08-23T05:56:27;8.70;;;4.53;;
48805;SDS011;34625;47.176;27.548;2022-08-23T05:58:56;9.25;;;4.60;;
48805;SDS011;34625;47.176;27.548;2022-08-23T06:01:26;8.25;;;5.32;;
48805;SDS011;34625;47.176;27.548;2022-08-23T06:03:59;10.82;;;5.47;;
48805;SDS011;34625;47.176;27.548;2022-08-23T06:06:30;9.90;;;4.57;;
48805;SDS011;34625;47.176;27.548;2022-08-23T06:08:57;11.10;;;4.60;;
48805;SDS011;34625;47.176;27.548;2022-08-23T06:11:24;8.35;;;3.88;;
48805;SDS011;34625;47.176;27.548;2022-08-23T06:13:53;5.53;;;4.07;;
48805;SDS011;34625;47.176;27.548;2022-08-23T06:16:34;17.08;;;4.55;;
48805;SDS011;34625;47.176;27.548;2022-08-23T06:19:03;4.72;;;3.72;;
48805;SDS011;34625;47.176;27.548;2022-08-23T06:22:03;8.05;;;3.70;;
48805;SDS011;34625;47.176;27.548;2022-08-23T06:24:34;8.30;;;3.83;;
48805;SDS011;34625;47.176;27.548;2022-08-23T06:27:11;7.28;;;3.65;;
48805;SDS011;34625;47.176;27.548;2022-08-23T06:29:39;8.88;;;4.35;;
48805;SDS011;34625;47.176;27.548;2022-08-23T06:32:23;8.95;;;3.55;;
48805;SDS011;34625;47.176;27.548;2022-08-23T06:35:08;8.25;;;3.97;;
48805;SDS011;34625;47.176;27.548;2022-08-23T06:37:46;7.60;;;3.65;;
48805;SDS011;34625;47.176;27.548;2022-08-23T06:40:47;6.78;;;3.50;;
48805;SDS011;34625;47.176;27.548;2022-08-23T06:43:37;6.63;;;4.03;;
48805;SDS011;34625;47.176;27.548;2022-08-23T06:46:26;12.80;;;4.07;;
48805;SDS011;34625;47.176;27.548;2022-08-23T06:48:54;11.90;;;3.70;;
48805;SDS011;34625;47.176;27.548;2022-08-23T06:54:12;8.30;;;4.10;;
48805;SDS011;34625;47.176;27.548;2022-08-23T06:56:58;9.43;;;4.03;;
48805;SDS011;34625;47.176;27.548;2022-08-23T06:59:32;7.60;;;3.88;;
48805;SDS011;34625;47.176;27.548;2022-08-23T07:02:30;6.70;;;3.03;;
48805;SDS011;34625;47.176;27.548;2022-08-23T07:04:56;6.22;;;3.35;;
48805;SDS011;34625;47.176;27.548;2022-08-23T07:09:55;10.82;;;3.85;;
48805;SDS011;34625;47.176;27.548;2022-08-23T07:12:21;11.82;;;3.78;;
48805;SDS011;34625;47.176;27.548;2022-08-23T07:14:47;11.43;;;3.30;;
48805;SDS011;34625;47.176;27.548;2022-08-23T07:17:14;9.60;;;3.65;;
48805;SDS011;34625;47.176;27.548;2022-08-23T07:19:40;8.32;;;4.03;;
48805;SDS011;34625;47.176;27.548;2022-08-23T07:22:08;15.23;;;4.47;;
48805;SDS011;34625;47.176;27.548;2022-08-23T07:24:35;11.32;;;4.28;;
48805;SDS011;34625;47.176;27.548;2022-08-23T07:27:03;20.58;;;3.38;;
48805;SDS011;34625;47.176;27.548;2022-08-23T07:29:32;10.32;;;4.57;;
48805;SDS011;34625;47.176;27.548;2022-08-23T07:31:59;15.75;;;4.03;;
48805;SDS011;34625;47.176;27.548;2022-08-23T07:34:26;13.38;;;3.85;;
48805;SDS011;34625;47.176;27.548;2022-08-23T07:36:52;26.95;;;4.22;;
48805;SDS011;34625;47.176;27.548;2022-08-23T07:39:19;15.15;;;3.70;;
48805;SDS011;34625;47.176;27.548;2022-08-23T07:41:47;7.50;;;2.75;;
48805;SDS011;34625;47.176;27.548;2022-08-23T07:44:14;13.75;;;4.05;;
48805;SDS011;34625;47.176;27.548;2022-08-23T07:46:43;27.52;;;4.78;;
48805;SDS011;34625;47.176;27.548;2022-08-23T07:49:11;15.68;;;4.07;;
48805;SDS011;34625;47.176;27.548;2022-08-23T07:51:44;14.57;;;3.97;;
48805;SDS011;34625;47.176;27.548;2022-08-23T07:54:14;17.05;;;4.15;;
48805;SDS011;34625;47.176;27.548;2022-08-23T07:56:56;20.50;;;4.55;;
48805;SDS011;34625;47.176;27.548;2022-08-23T07:59:33;19.00;;;4.05;;
48805;SDS011;34625;47.176;27.548;2022-08-23T08:02:09;12.73;;;3.97;;
48805;SDS011;34625;47.176;27.548;2022-08-23T08:04:35;37.25;;;5.15;;
48805;SDS011;34625;47.176;27.548;2022-08-23T08:07:02;18.38;;;5.18;;
48805;SDS011;34625;47.176;27.548;2022-08-23T08:09:30;19.10;;;4.95;;
48805;SDS011;34625;47.176;27.548;2022-08-23T08:11:56;16.48;;;3.97;;
48805;SDS011;34625;47.176;27.548;2022-08-23T08:14:26;24.17;;;5.93;;
48805;SDS011;34625;47.176;27.548;2022-08-23T08:16:56;40.88;;;6.15;;
48805;SDS011;34625;47.176;27.548;2022-08-23T08:19:57;21.20;;;4.50;;
48805;SDS011;34625;47.176;27.548;2022-08-23T08:22:59;29.88;;;4.90;;
48805;SDS011;34625;47.176;27.548;2022-08-23T08:25:25;26.58;;;4.78;;
48805;SDS011;34625;47.176;27.548;2022-08-23T08:27:53;23.98;;;4.88;;
48805;SDS011;34625;47.176;27.548;2022-08-23T08:30:19;24.77;;;3.80;;
48805;SDS011;34625;47.176;27.548;2022-08-23T08:32:45;29.73;;;4.72;;
48805;SDS011;34625;47.176;27.548;2022-08-23T08:35:11;18.15;;;3.92;;
48805;SDS011;34625;47.176;27.548;2022-08-23T08:37:37;26.38;;;5.28;;
48805;SDS011;34625;47.176;27.548;2022-08-23T08:40:05;25.98;;;4.90;;
48805;SDS011;34625;47.176;27.548;2022-08-23T08:45:04;36.25;;;6.03;;
48805;SDS011;34625;47.176;27.548;2022-08-23T08:50:25;29.10;;;4.85;;
48805;SDS011;34625;47.176;27.548;2022-08-23T08:53:16;47.85;;;6.05;;
48805;SDS011;34625;47.176;27.548;2022-08-23T08:56:11;28.50;;;3.65;;
48805;SDS011;34625;47.176;27.548;2022-08-23T08:58:50;28.75;;;5.10;;
48805;SDS011;34625;47.176;27.548;2022-08-23T09:01:19;26.40;;;5.13;;
48805;SDS011;34625;47.176;27.548;2022-08-23T09:03:49;20.15;;;3.85;;
48805;SDS011;34625;47.176;27.548;2022-08-23T09:06:24;21.88;;;4.80;;
48805;SDS011;34625;47.176;27.548;2022-08-23T09:08:59;31.17;;;4.95;;
48805;SDS011;34625;47.176;27.548;2022-08-23T09:11:34;25.40;;;4.63;;
48805;SDS011;34625;47.176;27.548;2022-08-23T09:17:01;40.33;;;5.38;;
48805;SDS011;34625;47.176;27.548;2022-08-23T09:19:35;30.02;;;4.88;;
48805;SDS011;34625;47.176;27.548;2022-08-23T09:22:12;40.05;;;5.20;;
48805;SDS011;34625;47.176;27.548;2022-08-23T09:24:41;29.05;;;4.75;;
48805;SDS011;34625;47.176;27.548;2022-08-23T09:29:50;34.05;;;5.40;;
48805;SDS011;34625;47.176;27.548;2022-08-23T09:32:33;32.53;;;5.78;;
48805;SDS011;34625;47.176;27.548;2022-08-23T09:35:10;41.30;;;5.15;;
48805;SDS011;34625;47.176;27.548;2022-08-23T09:37:50;33.15;;;5.65;;
48805;SDS011;34625;47.176;27.548;2022-08-23T09:40:40;46.58;;;6.63;;
48805;SDS011;34625;47.176;27.548;2022-08-23T09:43:14;40.33;;;5.30;;
48805;SDS011;34625;47.176;27.548;2022-08-23T09:48:33;37.03;;;5.85;;
48805;SDS011;34625;47.176;27.548;2022-08-23T09:57:05;33.60;;;6.50;;
48805;SDS011;34625;47.176;27.548;2022-08-23T10:02:32;40.33;;;5.32;;
48805;SDS011;34625;47.176;27.548;2022-08-23T10:07:43;39.23;;;4.40;;
48805;SDS011;34625;47.176;27.548;2022-08-23T10:10:28;38.33;;;5.20;;
48805;SDS011;34625;47.176;27.548;2022-08-23T10:13:03;33.92;;;5.65;;
48805;SDS011;34625;47.176;27.548;2022-08-23T10:26:38;22.02;;;4.40;;
48805;SDS011;34625;47.176;27.548;2022-08-23T10:29:34;22.10;;;5.00;;
48805;SDS011;34625;47.176;27.548;2022-08-23T10:40:39;22.95;;;4.53;;
48805;SDS011;34625;47.176;27.548;2022-08-23T10:43:09;45.15;;;6.47;;
48805;SDS011;34625;47.176;27.548;2022-08-23T10:45:45;40.85;;;7.75;;
48805;SDS011;34625;47.176;27.548;2022-08-23T10:53:48;35.90;;;6.47;;
48805;SDS011;34625;47.176;27.548;2022-08-23T10:56:25;26.65;;;4.05;;
48805;SDS011;34625;47.176;27.548;2022-08-23T10:59:28;34.47;;;4.90;;
48805;SDS011;34625;47.176;27.548;2022-08-23T11:01:52;35.55;;;5.15;;
48805;SDS011;34625;47.176;27.548;2022-08-23T11:07:24;31.80;;;4.47;;
48805;SDS011;34625;47.176;27.548;2022-08-23T11:10:14;23.98;;;3.70;;
48805;SDS011;34625;47.176;27.548;2022-08-23T11:15:38;37.08;;;5.28;;
48805;SDS011;34625;47.176;27.548;2022-08-23T11:18:09;45.92;;;5.78;;
48805;SDS011;34625;47.176;27.548;2022-08-23T11:26:10;36.65;;;5.60;;
48805;SDS011;34625;47.176;27.548;2022-08-23T11:34:28;42.20;;;5.72;;
48805;SDS011;34625;47.176;27.548;2022-08-23T11:45:03;41.97;;;5.57;;
48805;SDS011;34625;47.176;27.548;2022-08-23T11:50:47;40.22;;;5.60;;
48805;SDS011;34625;47.176;27.548;2022-08-23T11:53:31;40.22;;;5.97;;
48805;SDS011;34625;47.176;27.548;2022-08-23T11:56:33;26.10;;;4.68;;
48805;SDS011;34625;47.176;27.548;2022-08-23T12:04:57;35.60;;;4.63;;
48805;SDS011;34625;47.176;27.548;2022-08-23T12:18:43;42.08;;;4.80;;
48805;SDS011;34625;47.176;27.548;2022-08-23T12:26:50;35.83;;;4.75;;
48805;SDS011;34625;47.176;27.548;2022-08-23T12:35:30;34.03;;;5.88;;
48805;SDS011;34625;47.176;27.548;2022-08-23T12:40:58;36.20;;;5.32;;
48805;SDS011;34625;47.176;27.548;2022-08-23T12:43:58;35.20;;;5.18;;
48805;SDS011;34625;47.176;27.548;2022-08-23T12:46:37;40.03;;;5.57;;
48805;SDS011;34625;47.176;27.548;2022-08-23T12:49:07;42.42;;;5.50;;
48805;SDS011;34625;47.176;27.548;2022-08-23T12:51:40;32.05;;;5.38;;
48805;SDS011;34625;47.176;27.548;2022-08-23T12:54:14;26.83;;;4.57;;
48805;SDS011;34625;47.176;27.548;2022-08-23T12:56:50;43.28;;;6.40;;
48805;SDS011;34625;47.176;27.548;2022-08-23T12:59:31;50.30;;;7.78;;
48805;SDS011;34625;47.176;27.548;2022-08-23T13:02:01;38.15;;;5.28;;
48805;SDS011;34625;47.176;27.548;2022-08-23T13:04:30;42.13;;;5.20;;
48805;SDS011;34625;47.176;27.548;2022-08-23T13:07:00;32.20;;;6.18;;
48805;SDS011;34625;47.176;27.548;2022-08-23T13:09:31;31.63;;;5.75;;
48805;SDS011;34625;47.176;27.548;2022-08-23T13:12:03;37.00;;;5.97;;
48805;SDS011;34625;47.176;27.548;2022-08-23T13:17:21;40.58;;;5.15;;
48805;SDS011;34625;47.176;27.548;2022-08-23T13:22:26;36.35;;;5.45;;
48805;SDS011;34625;47.176;27.548;2022-08-23T13:27:26;24.73;;;4.90;;
48805;SDS011;34625;47.176;27.548;2022-08-23T13:37:46;30.27;;;6.20;;
48805;SDS011;34625;47.176;27.548;2022-08-23T13:40:14;30.83;;;5.13;;
48805;SDS011;34625;47.176;27.548;2022-08-23T13:42:47;29.10;;;5.07;;
48805;SDS011;34625;47.176;27.548;2022-08-23T13:45:21;24.95;;;3.92;;
48805;SDS011;34625;47.176;27.548;2022-08-23T13:47:58;27.60;;;5.57;;
48805;SDS011;34625;47.176;27.548;2022-08-23T13:50:34;26.08;;;4.32;;
48805;SDS011;34625;47.176;27.548;2022-08-23T13:53:02;40.40;;;5.43;;
48805;SDS011;34625;47.176;27.548;2022-08-23T13:55:30;34.38;;;4.85;;
48805;SDS011;34625;47.176;27.548;2022-08-23T13:57:58;43.45;;;5.60;;
48805;SDS011;34625;47.176;27.548;2022-08-23T14:00:24;36.50;;;4.90;;
48805;SDS011;34625;47.176;27.548;2022-08-23T14:02:51;32.80;;;4.47;;
48805;SDS011;34625;47.176;27.548;2022-08-23T14:05:18;36.40;;;5.72;;
48805;SDS011;34625;47.176;27.548;2022-08-23T14:07:47;35.35;;;5.88;;
48805;SDS011;34625;47.176;27.548;2022-08-23T14:10:17;30.73;;;5.70;;
48805;SDS011;34625;47.176;27.548;2022-08-23T14:12:45;40.78;;;5.55;;
48805;SDS011;34625;47.176;27.548;2022-08-23T14:15:14;27.10;;;5.88;;
48805;SDS011;34625;47.176;27.548;2022-08-23T14:17:43;38.47;;;6.05;;
48805;SDS011;34625;47.176;27.548;2022-08-23T14:20:15;36.30;;;6.28;;
48805;SDS011;34625;47.176;27.548;2022-08-23T14:22:43;43.65;;;5.70;;
48805;SDS011;34625;47.176;27.548;2022-08-23T14:25:10;28.88;;;4.53;;
48805;SDS011;34625;47.176;27.548;2022-08-23T14:27:41;34.05;;;4.32;;
48805;SDS011;34625;47.176;27.548;2022-08-23T14:30:10;32.88;;;4.15;;
48805;SDS011;34625;47.176;27.548;2022-08-23T14:32:45;29.98;;;5.30;;
48805;SDS011;34625;47.176;27.548;2022-08-23T14:35:11;22.88;;;6.15;;
48805;SDS011;34625;47.176;27.548;2022-08-23T14:37:37;33.50;;;4.63;;
48805;SDS011;34625;47.176;27.548;2022-08-23T14:40:03;30.65;;;5.00;;
48805;SDS011;34625;47.176;27.548;2022-08-23T14:42:30;25.52;;;4.07;;
48805;SDS011;34625;47.176;27.548;2022-08-23T14:44:56;36.97;;;4.95;;
48805;SDS011;34625;47.176;27.548;2022-08-23T14:47:22;41.17;;;6.00;;
48805;SDS011;34625;47.176;27.548;2022-08-23T14:49:48;33.05;;;4.60;;
48805;SDS011;34625;47.176;27.548;2022-08-23T14:52:14;36.65;;;4.60;;
48805;SDS011;34625;47.176;27.548;2022-08-23T14:54:41;33.72;;;4.80;;
48805;SDS011;34625;47.176;27.548;2022-08-23T14:57:07;25.13;;;5.30;;
48805;SDS011;34625;47.176;27.548;2022-08-23T14:59:33;38.60;;;5.55;;
48805;SDS011;34625;47.176;27.548;2022-08-23T15:01:59;37.28;;;4.80;;
48805;SDS011;34625;47.176;27.548;2022-08-23T15:04:25;35.72;;;4.70;;
48805;SDS011;34625;47.176;27.548;2022-08-23T15:06:52;40.63;;;5.20;;
48805;SDS011;34625;47.176;27.548;2022-08-23T15:09:19;26.38;;;4.20;;
48805;SDS011;34625;47.176;27.548;2022-08-23T15:11:45;25.08;;;4.50;;
48805;SDS011;34625;47.176;27.548;2022-08-23T15:14:12;33.50;;;5.22;;
48805;SDS011;34625;47.176;27.548;2022-08-23T15:16:38;41.85;;;5.82;;
48805;SDS011;34625;47.176;27.548;2022-08-23T15:19:04;26.77;;;5.10;;
48805;SDS011;34625;47.176;27.548;2022-08-23T15:21:32;28.13;;;3.92;;
48805;SDS011;34625;47.176;27.548;2022-08-23T15:23:58;40.60;;;4.60;;
48805;SDS011;34625;47.176;27.548;2022-08-23T15:26:26;36.55;;;5.18;;
48805;SDS011;34625;47.176;27.548;2022-08-23T15:28:55;29.73;;;3.47;;
48805;SDS011;34625;47.176;27.548;2022-08-23T15:31:22;28.50;;;4.07;;
48805;SDS011;34625;47.176;27.548;2022-08-23T15:33:49;23.63;;;4.03;;
48805;SDS011;34625;47.176;27.548;2022-08-23T15:36:15;20.10;;;3.85;;
48805;SDS011;34625;47.176;27.548;2022-08-23T15:38:43;27.48;;;4.13;;
48805;SDS011;34625;47.176;27.548;2022-08-23T15:41:12;23.30;;;3.47;;
48805;SDS011;34625;47.176;27.548;2022-08-23T15:43:39;29.80;;;3.55;;
48805;SDS011;34625;47.176;27.548;2022-08-23T15:46:07;19.45;;;3.58;;
48805;SDS011;34625;47.176;27.548;2022-08-23T15:48:36;10.40;;;2.95;;
48805;SDS011;34625;47.176;27.548;2022-08-23T15:51:32;25.15;;;3.35;;
48805;SDS011;34625;47.176;27.548;2022-08-23T15:53:58;22.90;;;3.97;;
48805;SDS011;34625;47.176;27.548;2022-08-23T15:56:32;31.98;;;4.32;;
48805;SDS011;34625;47.176;27.548;2022-08-23T15:59:14;46.25;;;3.85;;
48805;SDS011;34625;47.176;27.548;2022-08-23T16:01:42;25.00;;;3.42;;
48805;SDS011;34625;47.176;27.548;2022-08-23T16:04:09;24.48;;;3.88;;
48805;SDS011;34625;47.176;27.548;2022-08-23T16:06:36;20.17;;;3.47;;
48805;SDS011;34625;47.176;27.548;2022-08-23T16:09:04;20.40;;;4.05;;
48805;SDS011;34625;47.176;27.548;2022-08-23T16:11:31;21.58;;;4.25;;
48805;SDS011;34625;47.176;27.548;2022-08-23T16:13:58;33.38;;;4.47;;
48805;SDS011;34625;47.176;27.548;2022-08-23T16:16:25;22.65;;;3.72;;
48805;SDS011;34625;47.176;27.548;2022-08-23T16:18:55;24.10;;;4.15;;
48805;SDS011;34625;47.176;27.548;2022-08-23T16:21:23;16.95;;;3.60;;
48805;SDS011;34625;47.176;27.548;2022-08-23T16:23:51;22.92;;;4.10;;
48805;SDS011;34625;47.176;27.548;2022-08-23T16:26:19;23.00;;;3.53;;
48805;SDS011;34625;47.176;27.548;2022-08-23T16:28:48;32.33;;;4.57;;
48805;SDS011;34625;47.176;27.548;2022-08-23T16:31:17;24.13;;;3.80;;
48805;SDS011;34625;47.176;27.548;2022-08-23T16:33:43;20.00;;;3.83;;
48805;SDS011;34625;47.176;27.548;2022-08-23T16:36:12;18.83;;;3.50;;
48805;SDS011;34625;47.176;27.548;2022-08-23T16:38:42;15.13;;;3.88;;
48805;SDS011;34625;47.176;27.548;2022-08-23T16:41:09;26.75;;;4.15;;
48805;SDS011;34625;47.176;27.548;2022-08-23T16:43:35;25.15;;;3.85;;
48805;SDS011;34625;47.176;27.548;2022-08-23T16:46:02;22.15;;;3.85;;
48805;SDS011;34625;47.176;27.548;2022-08-23T16:48:30;28.08;;;3.60;;
48805;SDS011;34625;47.176;27.548;2022-08-23T16:50:56;19.40;;;3.63;;
48805;SDS011;34625;47.176;27.548;2022-08-23T16:53:22;21.98;;;3.53;;
48805;SDS011;34625;47.176;27.548;2022-08-23T16:55:48;17.70;;;4.05;;
48805;SDS011;34625;47.176;27.548;2022-08-23T16:58:15;29.27;;;3.97;;
48805;SDS011;34625;47.176;27.548;2022-08-23T17:00:41;16.40;;;3.63;;
48805;SDS011;34625;47.176;27.548;2022-08-23T17:03:07;37.33;;;5.95;;
48805;SDS011;34625;47.176;27.548;2022-08-23T17:05:33;29.65;;;8.10;;
48805;SDS011;34625;47.176;27.548;2022-08-23T17:08:00;42.83;;;11.60;;